| Record Date MM/DD/YYYY | Record Time HH:MM:SS | Record Julian Date NNN day of the year | Air Temperature Max (Degrees Fahrenheit F) | Time Max Air Temperature HH:MM:SS This is the time of max air temp for the prior hour interval listed for record [Time]. | Air Temperature Min (Degrees Fahrenheit F) | Time Min Air Temperature HH:MM:SS This is the time of min air temp for the prior hour interval listed for record [Time]. | Air Temperature Observed (Degrees Fahrenheit F) This is an instantaneous reading at the record [Time]. | Relative Humidity Max (Percent) | Time Max Relative Humidity HH:MM:SS This is the time of max relative humidity for the prior hour interval listed for record [Time]. | Relative Humidity Min (Percent) | Time Min Relative Humidity HH:MM:SS This is the time of min relative humidity for the prior hour interval listed for record [Time]. | Relative Humidity Observed (Percent) This is an instantaneous reading at the record [Time]. | Precipitation (Inches n.nn) rain fall that occurred during the prior hour interval listed for record [Time]. | Wind Speed (Miles Per Hour) Resultant Speed that occurred during the prior hour interval listed for record [Time]. | Wind Direction (Degrees) Resultant Direction that occurred during the prior hour interval listed for record [Time]. | Solar Radiation (Langley's) that occurred during the prior hour interval listed for record [Time]. | Soil Temperature Average at 2 inch depth (Degrees Fahrenheit F) that occurred during the prior hour interval listed for record [Time]. | Soil Temperature Observed at 2 inch depth (Degrees Fahrenheit F) This is an instantaneous reading at the record [Time]. | Soil Temperature Average at 4 inch depth (Degrees Fahrenheit F) that occurred during the prior hour interval listed for record [Time]. | Soil Temperature Observed at 4 inch depth (Degrees Fahrenheit F) This is an instantaneous reading at the record [Time]. |
|---|---|---|---|---|---|---|---|---|---|---|---|---|---|---|---|---|---|---|---|---|
| 04/30/2026 | 0:00:00 | 120 | 68 | 23:02:05 | 66 | 0:00:00 | 66 | 93 | 23:02:04 | 91 | 0:00:00 | 90.7 | 0 | 4.6 | 273 | 0 | 72 | 72 | 73 | 73 |
| 04/30/2026 | 1:00:00 | 120 | 66 | 0:00:00 | 64 | 0:53:01 | 64 | 94 | 0:36:02 | 90 | 0:01:03 | 92.9 | 0.04 | 7.9 | 5 | 0 | 72 | 72 | 73 | 73 |
| 04/30/2026 | 2:00:00 | 120 | 64 | 1:09:00 | 62 | 1:58:01 | 62 | 93 | 1:01:00 | 88 | 2:00:00 | 88.2 | 0 | 10.2 | 22 | 0 | 71 | 71 | 73 | 72 |
| 04/30/2026 | 3:00:00 | 120 | 62 | 2:01:00 | 61 | 2:46:02 | 61 | 92 | 2:58:01 | 88 | 2:20:04 | 91.7 | 0.01 | 7.8 | 39 | 0 | 70 | 70 | 72 | 72 |
| 04/30/2026 | 4:00:00 | 120 | 61 | 3:13:04 | 61 | 3:49:02 | 61 | 92 | 3:05:05 | 88 | 3:51:01 | 88.2 | 0 | 5.4 | 41 | 0 | 69 | 69 | 71 | 71 |
| 04/30/2026 | 5:00:00 | 120 | 61 | 4:00:00 | 60 | 4:59:02 | 60 | 89 | 4:54:04 | 87 | 4:27:05 | 89 | 0 | 5.4 | 32 | 0 | 69 | 69 | 71 | 71 |
| 04/30/2026 | 6:00:00 | 120 | 60 | 5:58:02 | 60 | 5:19:00 | 60 | 92 | 5:30:00 | 89 | 5:00:02 | 89.5 | 0 | 5.8 | 9 | 0 | 68 | 68 | 70 | 70 |
| 04/30/2026 | 7:00:00 | 120 | 61 | 6:56:01 | 60 | 6:26:05 | 61 | 91 | 6:40:02 | 87 | 6:59:00 | 87.5 | 0 | 7.0 | 23 | 5 | 68 | 68 | 70 | 70 |
| 04/30/2026 | 8:00:00 | 120 | 61 | 7:11:02 | 60 | 7:48:01 | 60 | 88 | 7:00:03 | 79 | 7:58:05 | 80 | 0 | 9.1 | 37 | 15 | 68 | 68 | 69 | 69 |
| 04/30/2026 | 9:00:00 | 120 | 62 | 8:48:05 | 60 | 8:17:02 | 61 | 83 | 8:03:05 | 75 | 8:42:01 | 75.95 | 0 | 7.8 | 41 | 26 | 68 | 68 | 69 | 69 |
| 04/30/2026 | 10:00:00 | 120 | 64 | 9:52:03 | 61 | 9:03:00 | 63 | 78 | 9:00:04 | 70 | 9:54:03 | 74.91 | 0 | 6.2 | 46 | 37 | 69 | 69 | 69 | 69 |
| 04/30/2026 | 11:00:00 | 120 | 66 | 10:47:00 | 63 | 10:00:02 | 65 | 76 | 10:00:01 | 65 | 10:47:05 | 69.47 | 0 | 6.0 | 29 | 63 | 70 | 72 | 70 | 70 |
| 04/30/2026 | 12:00:00 | 120 | 67 | 11:57:01 | 65 | 11:00:00 | 67 | 76 | 11:01:03 | 64 | 11:57:05 | 66.94 | 0 | 6.2 | 20 | 61 | 73 | 74 | 71 | 71 |
| 04/30/2026 | 13:00:00 | 120 | 69 | 12:56:00 | 66 | 12:08:02 | 69 | 71 | 12:16:03 | 59 | 12:59:00 | 60.66 | 0 | 6.4 | 38 | 65 | 75 | 76 | 72 | 72 |
| 04/30/2026 | 14:00:00 | 120 | 70 | 13:21:04 | 68 | 13:02:03 | 69 | 67 | 13:09:01 | 56 | 13:59:05 | 56.62 | 0 | 7.3 | 31 | 68 | 76 | 77 | 73 | 74 |
| 04/30/2026 | 15:00:00 | 120 | 70 | 14:32:01 | 69 | 14:03:04 | 69 | 63 | 14:04:01 | 53 | 14:35:00 | 58.79 | 0 | 7.4 | 30 | 38 | 77 | 77 | 74 | 74 |
| 04/30/2026 | 16:00:00 | 120 | 69 | 15:06:02 | 68 | 15:54:02 | 68 | 65 | 15:52:00 | 54 | 15:10:05 | 63.13 | 0 | 7.6 | 21 | 23 | 76 | 75 | 74 | 74 |
| 04/30/2026 | 17:00:00 | 120 | 68 | 16:02:02 | 66 | 16:59:05 | 66 | 68 | 16:59:00 | 59 | 16:19:04 | 64.86 | 0 | 6.7 | 15 | 11 | 74 | 73 | 74 | 74 |
| 04/30/2026 | 18:00:00 | 120 | 66 | 17:17:01 | 64 | 17:59:02 | 64 | 72 | 17:58:05 | 64 | 17:20:01 | 70.86 | 0 | 5.1 | 14 | 6 | 73 | 72 | 73 | 73 |
| 04/30/2026 | 19:00:00 | 120 | 64 | 18:02:02 | 63 | 18:57:03 | 63 | 74 | 18:56:00 | 70 | 18:01:03 | 71.58 | 0 | 4.3 | 16 | 0 | 71 | 71 | 73 | 72 |
| 04/30/2026 | 20:00:00 | 120 | 63 | 19:00:01 | 62 | 19:56:05 | 62 | 75 | 19:32:05 | 71 | 19:45:03 | 71.69 | 0 | 4.2 | 25 | 0 | 70 | 69 | 72 | 72 |
| 04/30/2026 | 21:00:00 | 120 | 62 | 20:00:00 | 62 | 20:40:00 | 62 | 75 | 20:39:04 | 71 | 20:12:04 | 73.46 | 0 | 3.6 | 33 | 0 | 69 | 69 | 71 | 71 |
| 04/30/2026 | 22:00:00 | 120 | 62 | 21:13:01 | 61 | 21:50:03 | 61 | 75 | 21:17:04 | 72 | 21:30:02 | 73.07 | 0 | 3.4 | 33 | 0 | 68 | 68 | 71 | 70 |
| 04/30/2026 | 23:00:00 | 120 | 62 | 22:03:04 | 60 | 22:49:05 | 60 | 79 | 22:46:04 | 72 | 22:07:03 | 77.49 | 0 | 2.5 | 50 | 0 | 68 | 67 | 70 | 70 |
| 05/01/2026 | 0:00:00 | 121 | 61 | 23:10:03 | 60 | 23:58:00 | 60 | 79 | 23:59:05 | 73 | 23:08:02 | 79.1 | 0 | 2.2 | 14 | 0 | 67 | 67 | 69 | 69 |
| 05/01/2026 | 1:00:00 | 121 | 60 | 0:03:04 | 59 | 0:51:00 | 59 | 82 | 0:41:04 | 78 | 0:01:03 | 79.06 | 0 | 3.3 | 12 | 0 | 67 | 66 | 69 | 69 |
| 05/01/2026 | 2:00:00 | 121 | 59 | 1:00:02 | 58 | 1:59:03 | 58 | 79 | 1:00:00 | 76 | 1:28:02 | 77.63 | 0 | 3.2 | 40 | 0 | 66 | 66 | 69 | 68 |
| 05/01/2026 | 3:00:00 | 121 | 58 | 2:05:02 | 57 | 2:53:04 | 57 | 81 | 2:11:01 | 78 | 2:00:00 | 78.16 | 0 | 2.4 | 32 | 0 | 65 | 65 | 68 | 68 |
| 05/01/2026 | 4:00:00 | 121 | 57 | 3:01:01 | 57 | 3:56:04 | 57 | 83 | 3:37:00 | 78 | 3:00:03 | 81.5 | 0 | 3.2 | 8 | 0 | 65 | 65 | 68 | 67 |
| 05/01/2026 | 5:00:00 | 121 | 57 | 4:00:00 | 56 | 4:54:05 | 56 | 84 | 4:53:03 | 81 | 4:10:02 | 84.3 | 0 | 3.5 | 8 | 0 | 64 | 64 | 67 | 67 |
| 05/01/2026 | 6:00:00 | 121 | 56 | 5:52:00 | 56 | 5:09:02 | 56 | 85 | 5:08:04 | 84 | 5:59:01 | 83.6 | 0 | 2.8 | 1 | 1 | 64 | 64 | 67 | 67 |
| 05/01/2026 | 7:00:00 | 121 | 56 | 6:23:00 | 56 | 6:00:03 | 56 | 84 | 6:07:02 | 81 | 6:58:04 | 81.5 | 0 | 4.2 | 12 | 3 | 64 | 64 | 66 | 66 |
| 05/01/2026 | 8:00:00 | 121 | 57 | 7:59:01 | 56 | 7:00:01 | 57 | 82 | 7:02:01 | 77 | 7:55:02 | 78.59 | 0 | 5.3 | 8 | 6 | 64 | 64 | 66 | 66 |
| 05/01/2026 | 9:00:00 | 121 | 58 | 8:56:04 | 57 | 8:01:02 | 58 | 79 | 8:13:04 | 75 | 8:58:00 | 76.08 | 0 | 4.6 | 27 | 12 | 64 | 64 | 66 | 66 |
| 05/01/2026 | 10:00:00 | 121 | 59 | 9:59:04 | 58 | 9:09:03 | 59 | 78 | 9:02:00 | 71 | 9:56:05 | 72.44 | 0 | 5.0 | 11 | 18 | 64 | 64 | 66 | 66 |
| 05/01/2026 | 11:00:00 | 121 | 61 | 10:51:04 | 59 | 10:04:04 | 61 | 74 | 10:00:03 | 66 | 10:43:01 | 70.4 | 0 | 3.9 | 18 | 29 | 65 | 66 | 66 | 66 |
| 05/01/2026 | 12:00:00 | 121 | 63 | 11:53:02 | 61 | 11:00:00 | 62 | 72 | 11:01:03 | 60 | 11:34:02 | 61.97 | 0 | 5.4 | 29 | 31 | 67 | 67 | 66 | 67 |
| 05/01/2026 | 13:00:00 | 121 | 63 | 12:58:00 | 62 | 12:00:00 | 63 | 68 | 12:32:03 | 59 | 12:37:02 | 63.54 | 0 | 5.5 | 14 | 26 | 67 | 68 | 67 | 67 |
| 05/01/2026 | 14:00:00 | 121 | 64 | 13:32:01 | 63 | 13:18:02 | 63 | 65 | 13:00:01 | 58 | 13:17:05 | 63.8 | 0 | 7.8 | 22 | 32 | 68 | 68 | 67 | 68 |
| 05/01/2026 | 15:00:00 | 121 | 63 | 14:05:01 | 62 | 14:55:00 | 63 | 67 | 14:59:03 | 60 | 14:11:02 | 65.81 | 0 | 6.4 | 31 | 20 | 68 | 68 | 68 | 68 |
| 05/01/2026 | 16:00:00 | 121 | 63 | 15:00:01 | 62 | 15:54:03 | 62 | 69 | 15:58:00 | 61 | 15:05:00 | 67.34 | 0 | 4.9 | 24 | 10 | 68 | 67 | 68 | 68 |
| 05/01/2026 | 17:00:00 | 121 | 62 | 16:03:03 | 60 | 16:59:03 | 61 | 76 | 16:43:05 | 65 | 16:02:02 | 73.94 | 0 | 3.2 | 8 | 5 | 67 | 67 | 68 | 68 |
| 05/01/2026 | 18:00:00 | 121 | 61 | 17:08:03 | 60 | 17:59:01 | 60 | 78 | 17:57:04 | 72 | 17:32:05 | 77.78 | 0 | 2.4 | 25 | 2 | 66 | 66 | 68 | 67 |
| 05/01/2026 | 19:00:00 | 121 | 60 | 18:00:00 | 59 | 18:58:02 | 59 | 82 | 18:56:05 | 77 | 18:10:03 | 81 | 0 | 2.0 | 354 | 0 | 66 | 65 | 67 | 67 |
| 05/01/2026 | 20:00:00 | 121 | 59 | 19:00:02 | 58 | 19:49:05 | 58 | 84 | 19:59:03 | 81 | 19:00:00 | 84 | 0 | 1.0 | 6 | 0 | 65 | 65 | 67 | 67 |
| 05/01/2026 | 21:00:00 | 121 | 58 | 20:00:01 | 58 | 21:00:00 | 58 | 84 | 20:00:00 | 81 | 20:23:04 | 82.1 | 0 | 3.2 | 0 | 0 | 65 | 65 | 67 | 67 |
| 05/01/2026 | 22:00:00 | 121 | 58 | 21:00:04 | 58 | 21:56:04 | 58 | 85 | 21:45:01 | 82 | 21:02:05 | 83.9 | 0 | 2.3 | 346 | 0 | 64 | 64 | 66 | 66 |
| 05/01/2026 | 23:00:00 | 121 | 58 | 22:55:05 | 58 | 22:49:00 | 58 | 86 | 22:48:01 | 84 | 22:02:04 | 84.3 | 0 | 2.5 | 332 | 0 | 64 | 64 | 66 | 66 |
| 05/02/2026 | 0:00:00 | 122 | 58 | 23:32:02 | 58 | 23:56:02 | 58 | 85 | 23:15:05 | 83 | 23:39:03 | 84.6 | 0 | 4.7 | 330 | 0 | 64 | 63 | 66 | 66 |
| 05/02/2026 | 1:00:00 | 122 | 58 | 0:21:05 | 57 | 0:34:03 | 58 | 85 | 0:00:00 | 74 | 0:55:04 | 75.75 | 0 | 4.7 | 11 | 0 | 63 | 63 | 65 | 65 |
| 05/02/2026 | 2:00:00 | 122 | 58 | 1:15:01 | 57 | 1:59:05 | 57 | 76 | 1:00:04 | 67 | 1:30:03 | 68.28 | 0 | 4.9 | 30 | 0 | 63 | 62 | 65 | 65 |
| 05/02/2026 | 3:00:00 | 122 | 57 | 2:00:05 | 56 | 2:59:02 | 56 | 70 | 2:23:04 | 64 | 2:55:04 | 64.6 | 0 | 5.8 | 22 | 0 | 62 | 62 | 65 | 65 |
| 05/02/2026 | 4:00:00 | 122 | 56 | 3:00:03 | 56 | 3:05:03 | 56 | 68 | 3:04:05 | 61 | 3:38:05 | 62.81 | 0 | 6.2 | 26 | 0 | 61 | 61 | 64 | 64 |
| 05/02/2026 | 5:00:00 | 122 | 56 | 4:00:01 | 54 | 4:59:02 | 54 | 69 | 4:59:02 | 63 | 4:02:03 | 67.42 | 0 | 5.1 | 14 | 0 | 61 | 61 | 64 | 64 |
| 05/02/2026 | 6:00:00 | 122 | 54 | 5:05:04 | 54 | 5:59:01 | 54 | 69 | 6:00:00 | 65 | 5:04:05 | 69.2 | 0 | 5.2 | 6 | 2 | 60 | 60 | 63 | 63 |
| 05/02/2026 | 7:00:00 | 122 | 55 | 6:58:05 | 54 | 6:00:02 | 55 | 69 | 6:00:01 | 63 | 7:00:00 | 63.38 | 0 | 6.3 | 15 | 10 | 60 | 60 | 63 | 63 |
| 05/02/2026 | 8:00:00 | 122 | 58 | 7:54:00 | 55 | 7:00:01 | 58 | 67 | 7:09:04 | 57 | 8:00:00 | 57.2 | 0 | 7.6 | 29 | 26 | 60 | 61 | 63 | 63 |
| 05/02/2026 | 9:00:00 | 122 | 60 | 8:57:05 | 58 | 8:00:02 | 60 | 62 | 8:03:00 | 49 | 8:58:03 | 52.88 | 0 | 8.4 | 29 | 41 | 61 | 62 | 63 | 63 |
| 05/02/2026 | 10:00:00 | 122 | 64 | 9:50:05 | 60 | 9:00:04 | 63 | 56 | 9:10:03 | 40 | 9:54:05 | 45.32 | 0 | 9.5 | 31 | 68 | 63 | 65 | 63 | 64 |
| 05/02/2026 | 11:00:00 | 122 | 66 | 10:56:04 | 63 | 10:01:02 | 66 | 51 | 10:14:05 | 39 | 10:57:00 | 44.61 | 0 | 11.0 | 22 | 75 | 66 | 67 | 64 | 65 |
| 05/02/2026 | 12:00:00 | 122 | 68 | 11:59:03 | 66 | 11:11:04 | 68 | 50 | 11:50:05 | 35 | 11:46:05 | 42.06 | 0 | 10.3 | 18 | 81 | 69 | 70 | 66 | 66 |
| 05/02/2026 | 13:00:00 | 122 | 69 | 12:45:00 | 67 | 12:07:05 | 68 | 48 | 12:42:04 | 34 | 12:07:01 | 39.04 | 0 | 11.2 | 12 | 81 | 71 | 72 | 67 | 68 |
| 05/02/2026 | 14:00:00 | 122 | 70 | 13:32:05 | 68 | 13:00:04 | 69 | 47 | 13:41:03 | 33 | 13:25:00 | 41.23 | 0 | 11.4 | 8 | 76 | 72 | 73 | 69 | 69 |
| 05/02/2026 | 15:00:00 | 122 | 70 | 14:39:00 | 68 | 14:06:05 | 70 | 47 | 14:38:01 | 32 | 14:06:03 | 41.66 | 0 | 10.7 | 18 | 62 | 73 | 73 | 70 | 70 |
| 05/02/2026 | 16:00:00 | 122 | 70 | 15:03:01 | 68 | 15:11:03 | 68 | 45 | 15:46:04 | 35 | 15:55:05 | 39.32 | 0 | 9.6 | 9 | 45 | 73 | 72 | 70 | 70 |
| 05/02/2026 | 17:00:00 | 122 | 69 | 16:52:04 | 66 | 16:24:03 | 69 | 46 | 16:24:00 | 36 | 16:50:05 | 38.79 | 0 | 7.5 | 357 | 22 | 72 | 71 | 70 | 70 |
| 05/02/2026 | 18:00:00 | 122 | 69 | 17:00:04 | 66 | 17:59:04 | 66 | 45 | 17:37:00 | 36 | 17:05:00 | 42.02 | 0 | 8.0 | 348 | 16 | 70 | 69 | 70 | 70 |
| 05/02/2026 | 19:00:00 | 122 | 67 | 18:00:04 | 61 | 18:59:01 | 61 | 60 | 18:58:05 | 42 | 18:00:02 | 58.98 | 0 | 3.3 | 325 | 2 | 68 | 67 | 69 | 69 |
| 05/02/2026 | 20:00:00 | 122 | 62 | 19:04:02 | 57 | 19:59:00 | 57 | 70 | 19:59:04 | 56 | 19:03:01 | 70.06 | 0 | 3.6 | 293 | 0 | 66 | 66 | 68 | 68 |
| 05/02/2026 | 21:00:00 | 122 | 58 | 20:39:00 | 56 | 20:20:04 | 58 | 72 | 20:25:01 | 63 | 20:38:05 | 64.18 | 0 | 3.3 | 310 | 0 | 65 | 64 | 68 | 67 |
| 05/02/2026 | 22:00:00 | 122 | 59 | 21:05:00 | 55 | 21:59:04 | 55 | 74 | 22:00:00 | 59 | 21:06:00 | 73.92 | 0 | 3.1 | 316 | 0 | 64 | 63 | 67 | 66 |
| 05/02/2026 | 23:00:00 | 122 | 55 | 22:00:00 | 51 | 22:55:05 | 51 | 85 | 22:52:01 | 74 | 22:00:04 | 84 | 0 | 0.4 | 318 | 0 | 63 | 62 | 66 | 66 |
| 05/03/2026 | 0:00:00 | 123 | 52 | 23:59:01 | 51 | 23:00:04 | 52 | 84 | 23:01:01 | 77 | 0:00:00 | 77.43 | 0 | 0.7 | 351 | 0 | 62 | 61 | 65 | 65 |
| 05/03/2026 | 1:00:00 | 123 | 53 | 0:50:02 | 52 | 0:03:02 | 52 | 77 | 0:00:02 | 73 | 0:50:04 | 75.2 | 0 | 2.7 | 18 | 0 | 61 | 60 | 64 | 64 |
| 05/03/2026 | 2:00:00 | 123 | 52 | 1:08:05 | 51 | 1:59:03 | 51 | 77 | 1:59:05 | 74 | 1:09:03 | 76.73 | 0 | 2.4 | 35 | 0 | 60 | 60 | 64 | 64 |
| 05/03/2026 | 3:00:00 | 123 | 51 | 2:00:01 | 49 | 2:59:00 | 49 | 83 | 3:00:00 | 77 | 2:00:00 | 82.6 | 0 | 2.2 | 7 | 0 | 59 | 59 | 63 | 63 |
| 05/03/2026 | 4:00:00 | 123 | 49 | 3:39:04 | 47 | 4:00:00 | 47 | 87 | 3:59:05 | 81 | 3:39:05 | 87.3 | 0 | 2.3 | 323 | 0 | 59 | 58 | 63 | 62 |
| 05/03/2026 | 5:00:00 | 123 | 47 | 4:29:03 | 46 | 4:05:00 | 46 | 89 | 4:59:03 | 87 | 4:01:02 | 89.3 | 0 | 1.7 | 307 | 0 | 58 | 58 | 62 | 62 |
| 05/03/2026 | 6:00:00 | 123 | 49 | 6:00:00 | 45 | 5:14:02 | 49 | 91 | 5:43:04 | 89 | 5:02:05 | 89.6 | 0 | 0.7 | 355 | 5 | 57 | 57 | 62 | 61 |
| 05/03/2026 | 7:00:00 | 123 | 55 | 6:59:05 | 49 | 6:00:00 | 55 | 90 | 6:00:01 | 71 | 6:55:00 | 72.81 | 0 | 2.0 | 3 | 20 | 57 | 57 | 61 | 61 |
| 05/03/2026 | 8:00:00 | 123 | 58 | 7:57:04 | 55 | 7:01:02 | 58 | 75 | 7:00:02 | 67 | 7:58:02 | 68.12 | 0 | 3.6 | 80 | 37 | 58 | 59 | 61 | 61 |
| 05/03/2026 | 9:00:00 | 123 | 63 | 8:58:01 | 58 | 8:01:05 | 63 | 71 | 8:03:05 | 47 | 8:47:00 | 52.05 | 0 | 2.7 | 115 | 53 | 60 | 62 | 61 | 62 |
| 05/03/2026 | 10:00:00 | 123 | 67 | 9:54:05 | 62 | 9:02:02 | 66 | 53 | 9:18:04 | 44 | 9:52:02 | 44.85 | 0 | 2.6 | 142 | 67 | 64 | 67 | 62 | 63 |
| 05/03/2026 | 11:00:00 | 123 | 69 | 10:44:03 | 66 | 10:26:00 | 69 | 51 | 10:05:05 | 39 | 10:52:02 | 42.19 | 0 | 2.3 | 163 | 76 | 69 | 71 | 64 | 65 |
| 05/03/2026 | 12:00:00 | 123 | 71 | 11:59:02 | 68 | 11:37:01 | 71 | 51 | 11:57:05 | 37 | 11:31:03 | 46.61 | 0 | 3.3 | 188 | 81 | 73 | 75 | 66 | 68 |
| 05/03/2026 | 13:00:00 | 123 | 72 | 12:57:04 | 69 | 12:14:03 | 71 | 49 | 12:25:05 | 37 | 12:49:05 | 48.15 | 0 | 3.7 | 245 | 81 | 76 | 77 | 69 | 70 |
| 05/03/2026 | 14:00:00 | 123 | 72 | 13:59:03 | 71 | 13:07:05 | 72 | 50 | 13:00:00 | 37 | 13:40:01 | 41.54 | 0 | 4.9 | 296 | 75 | 78 | 78 | 71 | 72 |
| 05/03/2026 | 15:00:00 | 123 | 75 | 14:57:02 | 72 | 14:10:00 | 75 | 49 | 14:20:04 | 34 | 14:56:00 | 42.17 | 0 | 4.6 | 313 | 65 | 79 | 79 | 72 | 73 |
| 05/03/2026 | 16:00:00 | 123 | 75 | 15:42:05 | 73 | 15:22:00 | 74 | 44 | 15:35:04 | 34 | 15:45:04 | 36.99 | 0 | 4.5 | 274 | 51 | 79 | 78 | 73 | 74 |
| 05/03/2026 | 17:00:00 | 123 | 76 | 16:42:05 | 74 | 16:05:01 | 74 | 41 | 16:51:03 | 34 | 16:28:04 | 38.88 | 0 | 2.8 | 296 | 34 | 78 | 77 | 74 | 74 |
| 05/03/2026 | 18:00:00 | 123 | 74 | 17:00:00 | 72 | 17:59:05 | 72 | 47 | 17:50:00 | 36 | 17:02:03 | 43.2 | 0 | 3.7 | 296 | 16 | 76 | 75 | 74 | 74 |
| 05/03/2026 | 19:00:00 | 123 | 72 | 18:07:03 | 65 | 18:59:05 | 65 | 71 | 18:53:02 | 43 | 18:03:00 | 69.84 | 0 | 1.4 | 256 | 3 | 74 | 73 | 73 | 73 |
| 05/03/2026 | 20:00:00 | 123 | 65 | 19:00:00 | 61 | 19:58:00 | 61 | 81 | 19:26:05 | 70 | 19:00:02 | 77.91 | 0 | 1.8 | 209 | 0 | 71 | 70 | 72 | 72 |
| 05/03/2026 | 21:00:00 | 123 | 61 | 20:00:01 | 58 | 21:00:00 | 58 | 82 | 21:00:00 | 73 | 20:40:05 | 81.8 | 0 | 1.6 | 261 | 0 | 70 | 69 | 71 | 71 |
| 05/03/2026 | 22:00:00 | 123 | 59 | 21:00:02 | 57 | 21:45:05 | 58 | 86 | 21:47:03 | 80 | 22:00:00 | 79.59 | 0 | 0.7 | 206 | 0 | 68 | 67 | 70 | 70 |
| 05/03/2026 | 23:00:00 | 123 | 59 | 22:03:03 | 56 | 22:42:04 | 56 | 88 | 22:45:01 | 79 | 22:02:00 | 86.2 | 0 | 1.1 | 200 | 0 | 66 | 66 | 69 | 69 |
| 05/04/2026 | 0:00:00 | 124 | 56 | 23:02:01 | 54 | 23:47:02 | 54 | 89 | 23:58:02 | 86 | 23:04:04 | 88.7 | 0 | 2.9 | 211 | 0 | 65 | 65 | 68 | 68 |
| 05/04/2026 | 1:00:00 | 124 | 54 | 0:00:00 | 53 | 0:49:03 | 53 | 90 | 0:55:05 | 87 | 0:22:03 | 88.6 | 0 | 1.7 | 193 | 0 | 64 | 64 | 67 | 67 |
| 05/04/2026 | 2:00:00 | 124 | 53 | 1:00:03 | 52 | 1:51:00 | 52 | 91 | 1:57:00 | 88 | 1:03:03 | 91.3 | 0 | 2.2 | 202 | 0 | 63 | 63 | 67 | 66 |
| 05/04/2026 | 3:00:00 | 124 | 53 | 2:11:01 | 52 | 2:37:02 | 52 | 91 | 2:00:01 | 90 | 2:16:03 | 91.1 | 0 | 2.7 | 229 | 0 | 63 | 62 | 66 | 66 |
| 05/04/2026 | 4:00:00 | 124 | 52 | 3:00:01 | 51 | 3:24:05 | 51 | 92 | 3:27:04 | 90 | 3:55:04 | 90 | 0 | 2.8 | 230 | 0 | 62 | 62 | 65 | 65 |
| 05/04/2026 | 5:00:00 | 124 | 51 | 4:00:01 | 50 | 4:46:01 | 50 | 92 | 4:55:05 | 90 | 4:00:01 | 91.9 | 0 | 2.0 | 215 | 0 | 61 | 61 | 65 | 64 |
| 05/04/2026 | 6:00:00 | 124 | 54 | 5:59:04 | 50 | 5:00:00 | 54 | 92 | 5:02:01 | 87 | 5:58:04 | 86.5 | 0 | 2.3 | 197 | 5 | 61 | 61 | 64 | 64 |
| 05/04/2026 | 7:00:00 | 124 | 60 | 6:53:00 | 54 | 6:00:00 | 60 | 87 | 6:00:00 | 75 | 6:51:00 | 77.04 | 0 | 3.3 | 204 | 19 | 61 | 61 | 64 | 64 |
| 05/04/2026 | 8:00:00 | 124 | 67 | 7:57:02 | 60 | 7:00:01 | 67 | 78 | 7:04:04 | 57 | 7:58:00 | 65.57 | 0 | 4.7 | 217 | 37 | 61 | 62 | 63 | 64 |
| 05/04/2026 | 9:00:00 | 124 | 72 | 8:55:05 | 67 | 8:01:01 | 71 | 65 | 8:00:00 | 53 | 8:43:01 | 54.94 | 0 | 5.1 | 237 | 51 | 64 | 65 | 64 | 64 |
| 05/04/2026 | 10:00:00 | 124 | 76 | 9:49:05 | 71 | 9:00:00 | 75 | 59 | 9:03:02 | 45 | 9:52:02 | 48.93 | 0 | 9.0 | 250 | 68 | 67 | 69 | 65 | 66 |
| 05/04/2026 | 11:00:00 | 124 | 79 | 10:57:03 | 75 | 10:12:02 | 78 | 53 | 10:13:04 | 42 | 10:51:03 | 46.07 | 0 | 7.2 | 241 | 73 | 70 | 72 | 66 | 67 |
| 05/04/2026 | 12:00:00 | 124 | 79 | 11:43:05 | 77 | 11:17:04 | 79 | 49 | 11:18:04 | 36 | 11:28:00 | 42.26 | 0 | 6.6 | 226 | 82 | 74 | 76 | 68 | 69 |
| 05/04/2026 | 13:00:00 | 124 | 80 | 12:56:05 | 78 | 12:29:03 | 80 | 47 | 12:15:03 | 36 | 12:57:05 | 41.95 | 0 | 8.6 | 211 | 79 | 78 | 80 | 71 | 72 |
| 05/04/2026 | 14:00:00 | 124 | 81 | 13:45:03 | 80 | 13:30:04 | 80 | 47 | 13:10:03 | 36 | 13:42:05 | 40.39 | 0 | 9.8 | 207 | 75 | 81 | 82 | 73 | 74 |
| 05/04/2026 | 15:00:00 | 124 | 81 | 14:26:05 | 80 | 14:50:05 | 81 | 45 | 14:04:04 | 34 | 14:50:02 | 37.55 | 0 | 9.0 | 223 | 65 | 83 | 83 | 75 | 75 |
| 05/04/2026 | 16:00:00 | 124 | 81 | 15:04:01 | 79 | 15:48:04 | 80 | 43 | 15:27:03 | 34 | 15:05:05 | 38.36 | 0 | 8.3 | 244 | 51 | 83 | 83 | 76 | 76 |
| 05/04/2026 | 17:00:00 | 124 | 80 | 16:23:02 | 78 | 16:58:05 | 78 | 45 | 16:47:05 | 36 | 16:04:02 | 41.43 | 0 | 9.1 | 219 | 30 | 82 | 81 | 77 | 77 |
| 05/04/2026 | 18:00:00 | 124 | 79 | 17:08:04 | 76 | 17:59:05 | 76 | 47 | 18:00:00 | 38 | 17:07:00 | 47.28 | 0 | 8.1 | 213 | 14 | 80 | 79 | 77 | 76 |
| 05/04/2026 | 19:00:00 | 124 | 76 | 18:00:01 | 69 | 18:58:03 | 69 | 59 | 18:53:02 | 46 | 18:00:04 | 58.43 | 0 | 4.6 | 205 | 2 | 77 | 76 | 76 | 76 |
| 05/04/2026 | 20:00:00 | 124 | 69 | 19:00:02 | 65 | 20:00:00 | 65 | 68 | 20:00:00 | 58 | 19:00:01 | 67.51 | 0 | 2.9 | 214 | 0 | 75 | 74 | 75 | 74 |
| 05/04/2026 | 21:00:00 | 124 | 65 | 20:00:03 | 62 | 20:59:01 | 62 | 76 | 20:58:02 | 67 | 20:01:04 | 75.23 | 0 | 2.8 | 225 | 0 | 73 | 72 | 74 | 73 |
| 05/04/2026 | 22:00:00 | 124 | 63 | 21:00:00 | 61 | 21:52:04 | 61 | 79 | 21:51:04 | 74 | 21:06:05 | 77.28 | 0 | 2.6 | 226 | 0 | 71 | 70 | 73 | 72 |
| 05/04/2026 | 23:00:00 | 124 | 62 | 22:00:00 | 60 | 22:33:04 | 61 | 80 | 22:38:05 | 77 | 23:00:00 | 76.55 | 0 | 3.2 | 230 | 0 | 70 | 69 | 72 | 71 |
| 05/05/2026 | 0:00:00 | 125 | 61 | 23:33:02 | 59 | 23:24:02 | 60 | 79 | 23:25:00 | 74 | 23:35:00 | 76.04 | 0 | 4.1 | 217 | 0 | 68 | 68 | 71 | 70 |
| 05/05/2026 | 1:00:00 | 125 | 60 | 0:00:01 | 59 | 0:44:02 | 59 | 77 | 0:44:04 | 74 | 0:22:05 | 76.4 | 0 | 5.2 | 204 | 0 | 67 | 67 | 70 | 70 |
| 05/05/2026 | 2:00:00 | 125 | 59 | 1:00:03 | 56 | 1:59:05 | 56 | 85 | 2:00:00 | 76 | 1:05:00 | 84.6 | 0 | 3.8 | 210 | 0 | 66 | 66 | 69 | 69 |
| 05/05/2026 | 3:00:00 | 125 | 57 | 2:46:05 | 56 | 2:16:00 | 57 | 86 | 2:13:01 | 83 | 2:49:03 | 83.4 | 0 | 3.7 | 210 | 0 | 66 | 65 | 68 | 68 |
| 05/05/2026 | 4:00:00 | 125 | 57 | 3:00:00 | 55 | 3:40:01 | 56 | 88 | 3:42:05 | 83 | 3:00:01 | 86.3 | 0 | 3.2 | 193 | 0 | 65 | 65 | 68 | 67 |
| 05/05/2026 | 5:00:00 | 125 | 56 | 4:00:00 | 55 | 4:16:05 | 56 | 88 | 4:21:03 | 86 | 4:00:01 | 88.1 | 0 | 2.9 | 200 | 0 | 64 | 64 | 67 | 67 |
| 05/05/2026 | 6:00:00 | 125 | 59 | 5:59:05 | 55 | 5:14:04 | 59 | 89 | 5:20:04 | 82 | 5:59:00 | 82.2 | 0 | 3.5 | 192 | 5 | 64 | 64 | 67 | 66 |
| 05/05/2026 | 7:00:00 | 125 | 63 | 6:56:01 | 59 | 6:00:00 | 63 | 82 | 6:03:02 | 73 | 6:58:00 | 74.15 | 0 | 5.3 | 189 | 18 | 64 | 64 | 66 | 66 |
| 05/05/2026 | 8:00:00 | 125 | 67 | 7:51:00 | 63 | 7:00:02 | 67 | 76 | 7:03:00 | 68 | 7:56:05 | 70.27 | 0 | 7.0 | 201 | 36 | 65 | 65 | 66 | 66 |
| 05/05/2026 | 9:00:00 | 125 | 71 | 8:59:03 | 67 | 8:00:00 | 71 | 71 | 8:00:03 | 63 | 8:39:00 | 65.13 | 0 | 7.9 | 201 | 47 | 67 | 68 | 66 | 67 |
| 05/05/2026 | 10:00:00 | 125 | 75 | 9:52:02 | 71 | 9:00:00 | 74 | 67 | 9:01:05 | 57 | 9:57:03 | 60.11 | 0 | 8.4 | 204 | 62 | 70 | 72 | 67 | 68 |
| 05/05/2026 | 11:00:00 | 125 | 75 | 10:44:05 | 72 | 10:12:01 | 74 | 64 | 10:09:04 | 56 | 10:46:00 | 59.51 | 0 | 8.3 | 221 | 41 | 73 | 74 | 69 | 70 |
| 05/05/2026 | 12:00:00 | 125 | 78 | 11:54:00 | 74 | 11:01:02 | 78 | 63 | 11:05:00 | 52 | 11:59:03 | 53.1 | 0 | 8.6 | 213 | 58 | 75 | 76 | 70 | 71 |
| 05/05/2026 | 13:00:00 | 125 | 78 | 12:29:05 | 76 | 12:58:04 | 77 | 59 | 13:00:00 | 52 | 12:00:02 | 59.06 | 0 | 9.7 | 199 | 40 | 77 | 78 | 72 | 72 |
| 05/05/2026 | 14:00:00 | 125 | 77 | 13:02:01 | 76 | 13:25:02 | 76 | 61 | 13:52:02 | 56 | 13:03:04 | 59.17 | 0 | 8.9 | 195 | 23 | 77 | 77 | 73 | 73 |
| 05/05/2026 | 15:00:00 | 125 | 78 | 14:40:01 | 76 | 15:00:00 | 76 | 60 | 14:28:03 | 56 | 14:43:00 | 58.69 | 0 | 9.7 | 191 | 27 | 77 | 77 | 73 | 73 |
| 05/05/2026 | 16:00:00 | 125 | 78 | 15:38:03 | 76 | 15:03:04 | 76 | 62 | 15:22:02 | 58 | 15:40:03 | 60.5 | 0 | 9.3 | 184 | 23 | 77 | 77 | 74 | 74 |
| 05/05/2026 | 17:00:00 | 125 | 77 | 16:24:05 | 75 | 16:59:01 | 76 | 65 | 16:59:03 | 59 | 16:03:04 | 64.86 | 0 | 9.8 | 181 | 14 | 77 | 76 | 74 | 74 |
| 05/05/2026 | 18:00:00 | 125 | 76 | 17:00:01 | 74 | 17:59:05 | 74 | 69 | 17:59:01 | 64 | 17:15:04 | 69.3 | 0 | 8.6 | 177 | 6 | 76 | 75 | 74 | 74 |
| 05/05/2026 | 19:00:00 | 125 | 74 | 18:00:00 | 73 | 18:57:02 | 73 | 72 | 18:43:05 | 68 | 18:01:01 | 71.7 | 0 | 5.8 | 181 | 1 | 75 | 74 | 74 | 73 |
| 05/05/2026 | 20:00:00 | 125 | 73 | 19:57:02 | 73 | 19:34:05 | 73 | 72 | 19:01:03 | 71 | 19:47:05 | 71.63 | 0 | 6.9 | 187 | 0 | 74 | 73 | 73 | 73 |
| 05/05/2026 | 21:00:00 | 125 | 73 | 20:13:00 | 72 | 20:30:05 | 73 | 73 | 20:30:03 | 71 | 20:52:03 | 71.67 | 0 | 7.7 | 190 | 0 | 73 | 72 | 73 | 73 |
| 05/05/2026 | 22:00:00 | 125 | 73 | 21:24:05 | 72 | 21:59:05 | 72 | 73 | 21:59:04 | 71 | 21:25:03 | 73.19 | 0 | 9.7 | 194 | 0 | 72 | 72 | 72 | 72 |
| 05/05/2026 | 23:00:00 | 125 | 72 | 22:01:02 | 70 | 23:00:00 | 70 | 77 | 22:59:05 | 73 | 22:01:01 | 77.39 | 0 | 8.5 | 193 | 0 | 71 | 71 | 72 | 72 |
| 05/06/2026 | 0:00:00 | 126 | 70 | 23:00:01 | 69 | 23:34:01 | 69 | 79 | 23:36:04 | 77 | 23:02:00 | 78.83 | 0 | 7.5 | 194 | 0 | 71 | 70 | 71 | 71 |
| 05/06/2026 | 1:00:00 | 126 | 70 | 0:00:04 | 69 | 0:59:05 | 69 | 82 | 0:59:01 | 79 | 0:01:04 | 81.4 | 0 | 8.7 | 187 | 0 | 70 | 70 | 71 | 71 |
| 05/06/2026 | 2:00:00 | 126 | 69 | 1:00:04 | 68 | 1:47:01 | 68 | 84 | 1:59:04 | 81 | 1:00:03 | 84.2 | 0 | 7.5 | 187 | 0 | 70 | 70 | 71 | 70 |
| 05/06/2026 | 3:00:00 | 126 | 68 | 2:30:05 | 68 | 2:14:03 | 68 | 86 | 2:59:05 | 84 | 2:00:02 | 85.7 | 0 | 7.0 | 177 | 0 | 70 | 70 | 70 | 70 |
| 05/06/2026 | 4:00:00 | 126 | 68 | 3:58:04 | 68 | 3:06:01 | 68 | 87 | 3:57:04 | 86 | 3:02:01 | 86.9 | 0 | 5.5 | 179 | 0 | 70 | 69 | 70 | 70 |
| 05/06/2026 | 5:00:00 | 126 | 70 | 4:59:03 | 68 | 4:02:05 | 69 | 87 | 4:17:05 | 85 | 5:00:00 | 85 | 0 | 6.2 | 188 | 0 | 69 | 69 | 70 | 70 |
| 05/06/2026 | 6:00:00 | 126 | 70 | 5:44:01 | 69 | 5:09:02 | 70 | 85 | 5:21:04 | 85 | 5:47:02 | 85 | 0 | 8.4 | 201 | 1 | 69 | 69 | 70 | 70 |
| 05/06/2026 | 7:00:00 | 126 | 72 | 6:58:05 | 70 | 6:06:01 | 72 | 85 | 6:26:01 | 82 | 6:59:04 | 81.7 | 0 | 8.0 | 197 | 9 | 69 | 70 | 70 | 70 |
| 05/06/2026 | 8:00:00 | 126 | 75 | 7:52:03 | 72 | 7:05:03 | 74 | 82 | 7:09:03 | 77 | 7:53:01 | 77.95 | 0 | 10.2 | 207 | 22 | 70 | 71 | 70 | 70 |
| 05/06/2026 | 9:00:00 | 126 | 76 | 8:59:04 | 74 | 8:02:02 | 76 | 79 | 8:09:05 | 75 | 8:29:00 | 76.22 | 0 | 10.0 | 218 | 23 | 71 | 72 | 70 | 70 |
| 05/06/2026 | 10:00:00 | 126 | 77 | 9:30:05 | 76 | 9:57:01 | 76 | 79 | 9:56:03 | 75 | 9:20:05 | 78.43 | 0 | 8.9 | 219 | 15 | 73 | 73 | 71 | 71 |
| 05/06/2026 | 11:00:00 | 126 | 79 | 10:53:01 | 76 | 10:00:02 | 79 | 79 | 10:06:01 | 72 | 10:57:03 | 73.76 | 0 | 0.9 | 218 | 24 | 73 | 74 | 71 | 71 |
| 05/06/2026 | 12:00:00 | 126 | 80 | 11:17:00 | 78 | 11:53:02 | 79 | 76 | 11:54:00 | 70 | 11:21:00 | 73.14 | 0 | 10.1 | 215 | 24 | 75 | 75 | 72 | 72 |
| 05/06/2026 | 13:00:00 | 126 | 79 | 12:00:01 | 76 | 12:42:04 | 78 | 79 | 12:49:05 | 73 | 12:01:01 | 76.9 | 0 | 9.1 | 208 | 15 | 75 | 75 | 73 | 73 |
| 05/06/2026 | 14:00:00 | 126 | 80 | 13:36:05 | 78 | 13:00:00 | 79 | 78 | 13:53:01 | 73 | 13:37:05 | 75.93 | 0 | 9.8 | 201 | 33 | 76 | 77 | 73 | 73 |
| 05/06/2026 | 15:00:00 | 126 | 80 | 14:05:04 | 77 | 14:31:00 | 79 | 80 | 14:41:03 | 75 | 14:07:03 | 77.41 | 0 | 9.1 | 201 | 22 | 77 | 77 | 74 | 74 |
| 05/06/2026 | 16:00:00 | 126 | 79 | 15:10:02 | 77 | 15:59:04 | 77 | 81 | 15:56:03 | 77 | 15:00:05 | 80.7 | 0 | 8.9 | 198 | 16 | 77 | 77 | 74 | 74 |
| 05/06/2026 | 17:00:00 | 126 | 77 | 16:00:01 | 76 | 16:31:00 | 76 | 87 | 16:42:02 | 81 | 16:00:00 | 85.6 | 0 | 6.4 | 214 | 6 | 77 | 76 | 74 | 74 |
| 05/06/2026 | 18:00:00 | 126 | 76 | 17:00:01 | 63 | 18:00:00 | 63 | 91 | 17:58:00 | 80 | 17:06:00 | 90.8 | 0.13 | 12.7 | 11 | 2 | 76 | 74 | 74 | 74 |
| 05/06/2026 | 19:00:00 | 126 | 63 | 18:59:05 | 62 | 18:15:04 | 63 | 93 | 18:27:00 | 91 | 18:59:01 | 90.9 | 0.01 | 7.0 | 28 | 0 | 73 | 72 | 74 | 73 |
| 05/06/2026 | 20:00:00 | 126 | 63 | 19:01:05 | 63 | 19:59:03 | 63 | 93 | 19:49:04 | 90 | 19:16:04 | 92.6 | 0.12 | 4.8 | 41 | 0 | 72 | 71 | 73 | 72 |
| 05/06/2026 | 21:00:00 | 126 | 63 | 20:09:02 | 62 | 20:38:05 | 62 | 93 | 20:08:05 | 92 | 20:55:05 | 92.5 | 0.02 | 3.7 | 304 | 0 | 70 | 70 | 72 | 72 |
| 05/06/2026 | 22:00:00 | 126 | 63 | 21:11:04 | 61 | 21:54:05 | 62 | 93 | 21:30:02 | 92 | 21:11:01 | 92.8 | 0.01 | 5.4 | 354 | 0 | 70 | 69 | 71 | 71 |
| 05/06/2026 | 23:00:00 | 126 | 62 | 22:02:02 | 60 | 22:58:01 | 60 | 93 | 22:20:01 | 92 | 22:40:02 | 92.7 | 0 | 8.4 | 1 | 0 | 69 | 69 | 71 | 70 |
| 05/07/2026 | 0:00:00 | 127 | 60 | 23:01:01 | 59 | 23:58:04 | 59 | 94 | 23:29:03 | 93 | 23:02:04 | 93 | 0.04 | 8.5 | 5 | 0 | 68 | 68 | 70 | 70 |
| 05/07/2026 | 1:00:00 | 127 | 59 | 0:10:02 | 58 | 0:54:05 | 58 | 93 | 0:37:02 | 92 | 0:59:05 | 92.4 | 0.02 | 8.1 | 357 | 0 | 67 | 67 | 70 | 69 |
| Average | 65.29 | 63.21 | 64.19 | 74.29 | 67.16 | 70.85 | 0 | 5.58 | 18.52 | 68.92 | 68.91 | 69.08 | 69.07 | |||||||
| Total | 0.4 |